Copper Center, Alaska
Current Conditions -  °F | °C
As of 6:53 AM on Monday 26 Jan 2015 (Local Time) from PAGK Reporting Station
Clear Clear  
Wind Chill: -36°   Ceiling: Unl
Heat Index: -22°   Visibility: 8mi
Dew Point: -29°   Wind: 5mph
Humidity: 70%   Direction: 320°NW
Pressure: 30.05"   Gusts: NA
Location:  61.95°N, 145.31°W
Report Text: PAGK 261553Z AUTO 32004KT 8SM CLR M30/M34 A3005 RMK AO2 SLP251 T13001339 TSNO
Loading
Personal Weather Stations






























Interactive Weather Map New forecast layout! Learn more

10-Day Weather Forecast

Advertisements
Track Severe Weather on mobile